Terminal Aerodrome Forecast
Issued by NWS

Home | Current Version | Previous Version | Graphics & Text | Print | Product List | Glossary On
Versions: 1 2 3 4 5 6 7 8 9 10 11 12 13 14 15 16 17 18 19 20 21 22 23 24
000
FTUS43 KLOT 091745
TAFDPA
TAF
KDPA 091745Z 0918/1018 33018G29KT P6SM SCT025 BKN035
      TEMPO 0918/0919 6SM -SHSN BKN025
     FM100000 29009KT P6SM FEW035 BKN150
     FM100900 23009KT P6SM SCT050 BKN100=

USA.gov is the U.S. government's official web portal to all federal, state and local government web resources and services.